To NAV CANADA Home Page Login to a new session Search on AWWS site Feedback and Comments Disclaimer Vers la page française équivalente Tips FAQ What's new on the site To the Forecasts and Observations / NOTAM section To "File a Flight Plan" website Publications and other links Update of the User's profile FIC Telephone Numbers My Weather Data Folder Route Weather Data Regional Weather Data Local Weather Data To the Forecasts and Observations / NOTAM section
Request Generated 05/02/2016 at 12:37:52 UTC . Weather information available at that time is displayed.

METAR/TAF

WHITEHORSE/ERIK NIELSEN INTL/YT    

METAR CYXY 021200Z 18011KT 10SM -RA FEW008 OVC026 05/04 A2965 RMK
SF2SC6 SLP063=
METAR CYXY 021100Z 18011KT 10SM OVC024 05/04 A2967 RMK SC8 SLP072=
METAR CYXY 021000Z 18009KT 10SM -RA BKN022 OVC035 05/04 A2969 RMK
SC6SC2 SLP080=

TAF CYXY 021138Z 0212/0312 16012KT P6SM SCT020 OVC030 TEMPO 0212/0214
P6SM -SHRA OVC020
FM021400 17012KT P6SM SCT020 BKN030 OVC060 TEMPO 0214/0218 BKN020
OVC030
FM021800 17015G25KT P6SM BKN060 TEMPO 0218/0302 P6SM -SHRA
FM030200 17015KT P6SM FEW060 FEW200
BECMG 0304/0306 17010KT
RMK NXT FCST BY 021800Z=
Your time UTC time
Weather data provided by Environment Canada and NAV CANADA